createdAt,value
2019-05-06T00:00:55.838Z,102002.76
2019-05-06T00:03:15.637Z,102003.48
2019-05-06T00:05:44.972Z,102001.40
2019-05-06T00:08:14.523Z,102003.84
2019-05-06T00:10:44.747Z,102000.38
2019-05-06T00:13:14.292Z,101997.30
2019-05-06T00:15:43.771Z,102001.59
2019-05-06T00:18:13.903Z,102000.86
2019-05-06T00:20:43.896Z,101999.17
2019-05-06T00:23:21.932Z,102003.03
2019-05-06T00:26:10.228Z,102003.75
2019-05-06T00:28:53.888Z,102013.88
2019-05-06T00:31:24.020Z,102008.02
2019-05-06T00:33:54.112Z,102005.83
2019-05-06T00:36:23.904Z,102007.45
2019-05-06T00:38:56.337Z,102000.63
2019-05-06T00:41:30.839Z,102002.21
2019-05-06T00:44:00.205Z,102000.80
2019-05-06T00:46:29.563Z,102002.17
2019-05-06T00:48:58.891Z,102000.90
2019-05-06T00:51:28.237Z,101999.90
2019-05-06T00:54:05.729Z,101993.48
2019-05-06T00:56:35.167Z,101989.58
2019-05-06T00:59:04.521Z,101996.37
2019-05-06T01:01:34.497Z,102003.02
2019-05-06T01:04:05.269Z,101995.35
2019-05-06T01:06:37.154Z,101996.53
2019-05-06T01:09:10.524Z,101997.77
2019-05-06T01:11:39.879Z,102001.77
2019-05-06T01:14:14.800Z,102001.00
2019-05-06T01:16:44.142Z,102005.05
2019-05-06T01:19:14.184Z,102009.03
2019-05-06T01:21:44.791Z,102006.37
2019-05-06T01:24:14.775Z,102009.84
2019-05-06T01:26:45.601Z,102006.70
2019-05-06T01:29:15.032Z,102005.84
2019-05-06T01:31:46.108Z,102005.20
2019-05-06T01:34:15.557Z,102005.92
2019-05-06T01:36:44.910Z,102001.53
2019-05-06T01:39:36.125Z,102005.14
2019-05-06T01:42:27.370Z,102003.71
2019-05-06T01:44:56.807Z,101995.32
2019-05-06T01:47:26.173Z,101992.34
2019-05-06T01:49:55.563Z,101984.81
2019-05-06T01:52:24.975Z,101990.44
2019-05-06T01:54:54.402Z,101984.01
2019-05-06T01:57:24.433Z,101980.62
2019-05-06T01:59:54.248Z,101983.45
2019-05-06T02:02:24.024Z,101981.48
2019-05-06T02:04:54.241Z,101974.59
2019-05-06T02:07:24.269Z,101979.44
2019-05-06T02:09:54.426Z,101977.25
2019-05-06T02:12:24.554Z,101977.94
2019-05-06T02:14:54.446Z,101975.28
2019-05-06T02:17:24.021Z,101977.85
2019-05-06T02:19:54.636Z,101969.88
2019-05-06T02:22:40.601Z,101973.39
2019-05-06T02:25:28.959Z,101971.67
2019-05-06T02:27:58.326Z,101974.00
2019-05-06T02:30:40.221Z,101973.61
2019-05-06T02:33:27.042Z,101967.44
2019-05-06T02:36:15.353Z,101961.34
2019-05-06T02:38:48.049Z,101962.46
2019-05-06T02:41:16.024Z,101967.61
2019-05-06T02:43:46.050Z,101963.10
2019-05-06T02:46:15.562Z,101967.01
2019-05-06T02:49:16.172Z,101965.90
2019-05-06T02:51:45.652Z,101965.81
2019-05-06T02:54:15.073Z,101969.97
2019-05-06T02:56:44.432Z,101964.86
2019-05-06T02:59:13.782Z,101961.73
2019-05-06T03:01:43.494Z,101967.70
2019-05-06T03:04:13.315Z,101962.64
2019-05-06T03:06:44.700Z,101960.62
2019-05-06T03:09:14.097Z,101959.94
2019-05-06T03:11:43.972Z,101959.94
2019-05-06T03:14:14.062Z,101958.61
2019-05-06T03:16:44.155Z,101956.03
2019-05-06T03:19:13.739Z,101950.33
2019-05-06T03:21:58.184Z,101957.28
2019-05-06T03:24:33.868Z,101955.81
2019-05-06T03:27:04.588Z,101966.28
2019-05-06T03:29:34.337Z,101957.70
2019-05-06T03:32:06.891Z,101954.44
2019-05-06T03:34:57.850Z,101951.22
2019-05-06T03:37:08.148Z,101948.65
2019-05-06T03:39:36.871Z,101947.54
2019-05-06T03:42:06.319Z,101948.61
2019-05-06T03:44:37.382Z,101944.38
2019-05-06T03:47:23.481Z,101941.45
2019-05-06T03:49:54.690Z,101935.72
2019-05-06T03:52:25.220Z,101936.39
2019-05-06T03:54:55.362Z,101938.63
2019-05-06T03:57:26.507Z,101934.25
2019-05-06T03:59:56.272Z,101935.06
2019-05-06T04:02:25.786Z,101934.25
2019-05-06T04:04:56.799Z,101927.69
2019-05-06T04:07:26.930Z,101916.98
2019-05-06T04:09:56.604Z,101924.17
2019-05-06T04:12:27.469Z,101925.50
2019-05-06T04:14:57.191Z,101928.76
2019-05-06T04:17:57.982Z,101927.64
2019-05-06T04:20:43.600Z,101927.93
2019-05-06T04:23:23.189Z,101927.56
2019-05-06T04:26:13.552Z,101927.82
2019-05-06T04:28:43.525Z,101922.64
2019-05-06T04:31:13.401Z,101927.59
2019-05-06T04:34:03.645Z,101926.86
2019-05-06T04:36:23.713Z,101920.61
2019-05-06T04:38:54.185Z,101915.50
2019-05-06T04:41:26.763Z,101922.62
2019-05-06T04:43:56.004Z,101925.80
2019-05-06T04:46:25.483Z,101919.62
2019-05-06T04:48:57.629Z,101924.33
2019-05-06T04:51:27.188Z,101920.22
2019-05-06T04:53:56.609Z,101926.18
2019-05-06T04:56:25.963Z,101932.44
2019-05-06T04:58:55.317Z,101924.47
2019-05-06T05:01:24.635Z,101928.76
2019-05-06T05:03:54.247Z,101924.09
2019-05-06T05:06:23.691Z,101922.08
2019-05-06T05:08:54.329Z,101923.53
2019-05-06T05:11:57.738Z,101924.09
2019-05-06T05:14:35.743Z,101922.85
2019-05-06T05:17:22.389Z,101927.22
2019-05-06T05:19:52.722Z,101921.82
2019-05-06T05:22:22.098Z,101918.73
2019-05-06T05:24:52.155Z,101919.14
2019-05-06T05:27:22.089Z,101919.27
2019-05-06T05:29:52.329Z,101911.97
2019-05-06T05:32:22.582Z,101918.48
2019-05-06T05:34:52.777Z,101917.23
2019-05-06T05:37:23.324Z,101921.08
2019-05-06T05:39:52.871Z,101920.69
2019-05-06T05:42:28.743Z,101921.64
2019-05-06T05:44:58.882Z,101923.36
2019-05-06T05:47:29.295Z,101923.66
2019-05-06T05:50:17.543Z,101923.98
2019-05-06T05:52:46.912Z,101919.83
2019-05-06T05:55:16.345Z,101922.95
2019-05-06T05:57:45.732Z,101920.88
2019-05-06T06:00:16.035Z,101928.78
2019-05-06T06:02:46.097Z,101927.00
2019-05-06T06:05:15.743Z,101924.25
2019-05-06T06:07:45.250Z,101927.78
2019-05-06T06:10:23.612Z,101916.24
2019-05-06T06:12:54.069Z,101921.33
2019-05-06T06:15:44.728Z,101921.65
2019-05-06T06:18:33.364Z,101914.59
2019-05-06T06:21:28.117Z,101922.01
2019-05-06T06:24:02.671Z,101915.47
2019-05-06T06:26:32.465Z,101908.05
2019-05-06T06:29:03.256Z,101907.48
2019-05-06T06:31:39.545Z,101907.98
2019-05-06T06:34:18.290Z,101911.71
2019-05-06T06:36:57.115Z,101909.48
2019-05-06T06:39:32.707Z,101907.42
2019-05-06T06:42:02.850Z,101908.05
2019-05-06T06:44:34.192Z,101901.52
2019-05-06T06:47:03.668Z,101897.48
2019-05-06T06:49:33.049Z,101901.89
2019-05-06T06:52:02.980Z,101897.52
2019-05-06T06:54:32.965Z,101897.53
2019-05-06T06:57:24.458Z,101906.97
2019-05-06T07:00:08.797Z,101910.30
2019-05-06T07:02:48.173Z,101904.00
2019-05-06T07:05:28.443Z,101911.25
2019-05-06T07:07:56.945Z,101910.48
2019-05-06T07:10:44.650Z,101907.22
2019-05-06T07:13:18.065Z,101901.84
2019-05-06T07:15:48.079Z,101900.83
2019-05-06T07:18:17.537Z,101898.23
2019-05-06T07:21:09.979Z,101905.66
2019-05-06T07:23:39.396Z,101900.39
2019-05-06T07:26:12.209Z,101901.32
2019-05-06T07:28:43.807Z,101906.74
2019-05-06T07:31:22.771Z,101910.67
2019-05-06T07:33:52.268Z,101910.92
2019-05-06T07:36:23.590Z,101899.61
2019-05-06T07:39:04.155Z,101901.37
2019-05-06T07:41:46.496Z,101907.09
2019-05-06T07:44:23.778Z,101908.13
2019-05-06T07:47:23.947Z,101910.63
2019-05-06T07:49:53.607Z,101909.94
2019-05-06T07:52:23.194Z,101907.03
2019-05-06T07:54:53.402Z,101909.58
2019-05-06T07:57:26.199Z,101906.16
2019-05-06T07:59:56.065Z,101903.34
2019-05-06T08:02:25.617Z,101901.36
2019-05-06T08:04:55.628Z,101895.57
2019-05-06T08:07:26.703Z,101900.49
2019-05-06T08:09:56.262Z,101906.06
2019-05-06T08:12:27.162Z,101905.91
2019-05-06T08:14:57.693Z,101903.55
2019-05-06T08:17:37.638Z,101905.13
2019-05-06T08:20:08.970Z,101899.97
2019-05-06T08:22:56.650Z,101893.17
2019-05-06T08:25:37.088Z,101900.69
2019-05-06T08:28:06.730Z,101906.70
2019-05-06T08:30:37.305Z,101902.80
2019-05-06T08:33:07.013Z,101904.56
2019-05-06T08:35:37.266Z,101907.64
2019-05-06T08:38:07.825Z,101909.75
2019-05-06T08:40:38.482Z,101910.97
2019-05-06T08:43:07.968Z,101900.27
2019-05-06T08:45:37.792Z,101897.73
2019-05-06T08:48:08.843Z,101894.06
2019-05-06T08:50:57.236Z,101896.54
2019-05-06T08:53:49.164Z,101893.02
2019-05-06T08:56:22.718Z,101892.90
2019-05-06T08:58:53.833Z,101883.50
2019-05-06T09:01:43.307Z,101884.39
2019-05-06T09:04:16.268Z,101884.80
2019-05-06T09:06:48.471Z,101882.84
2019-05-06T09:09:18.050Z,101881.53
2019-05-06T09:11:47.573Z,101884.37
2019-05-06T09:14:23.609Z,101871.11
2019-05-06T09:16:54.125Z,101871.52
2019-05-06T09:19:23.845Z,101877.62
2019-05-06T09:21:53.591Z,101875.07
2019-05-06T09:24:23.331Z,101877.14
2019-05-06T09:27:04.589Z,101877.27
2019-05-06T09:29:46.731Z,101883.52
2019-05-06T09:32:20.011Z,101883.65
2019-05-06T09:34:54.369Z,101884.41
2019-05-06T09:37:24.346Z,101883.30
2019-05-06T09:39:53.941Z,101889.66
2019-05-06T09:42:23.463Z,101892.13
2019-05-06T09:44:54.191Z,101889.06
2019-05-06T09:47:58.069Z,101886.89
2019-05-06T09:50:50.127Z,101888.45
2019-05-06T09:53:24.923Z,101885.53
2019-05-06T09:56:22.890Z,101884.94
2019-05-06T09:58:52.923Z,101886.98
2019-05-06T10:01:22.655Z,101884.87
2019-05-06T10:03:52.919Z,101887.28
2019-05-06T10:06:22.414Z,101887.70
2019-05-06T10:08:51.788Z,101884.52
2019-05-06T10:11:22.293Z,101881.28
2019-05-06T10:13:52.687Z,101887.91
2019-05-06T10:16:22.123Z,101884.16
2019-05-06T10:18:52.455Z,101882.14
2019-05-06T10:21:23.001Z,101882.28
2019-05-06T10:23:52.875Z,101889.80
2019-05-06T10:26:23.436Z,101886.84
2019-05-06T10:29:15.162Z,101878.07
2019-05-06T10:31:49.234Z,101873.89
2019-05-06T10:34:18.890Z,101881.78
2019-05-06T10:37:14.627Z,101873.42
2019-05-06T10:39:36.448Z,101875.23
2019-05-06T10:42:13.095Z,101870.39
2019-05-06T10:45:03.597Z,101872.45
2019-05-06T10:47:33.160Z,101872.81
2019-05-06T10:50:02.496Z,101865.17
2019-05-06T10:52:48.368Z,101856.58
2019-05-06T10:55:17.727Z,101860.73
2019-05-06T10:57:47.664Z,101860.30
2019-05-06T11:00:19.301Z,101864.42
2019-05-06T11:03:14.406Z,101864.35
2019-05-06T11:05:43.125Z,101863.15
2019-05-06T11:08:12.334Z,101862.80
2019-05-06T11:10:45.183Z,101865.98
2019-05-06T11:13:13.154Z,101855.80
2019-05-06T11:15:43.441Z,101851.39
2019-05-06T11:18:13.726Z,101852.00
2019-05-06T11:20:44.080Z,101857.99
2019-05-06T11:23:14.439Z,101856.03
2019-05-06T11:25:43.972Z,101851.09
2019-05-06T11:28:34.915Z,101854.55
2019-05-06T11:31:15.339Z,101857.34
2019-05-06T11:34:09.593Z,101855.80
2019-05-06T11:36:52.388Z,101856.23
2019-05-06T11:39:23.264Z,101854.66
2019-05-06T11:42:06.301Z,101857.73
2019-05-06T11:44:24.249Z,101853.85
2019-05-06T11:46:53.725Z,101850.35
2019-05-06T11:49:23.470Z,101855.65
2019-05-06T11:51:52.984Z,101848.09
2019-05-06T11:54:24.452Z,101866.33
2019-05-06T11:56:58.136Z,101854.53
2019-05-06T11:59:24.809Z,101848.78
2019-05-06T12:01:58.569Z,101848.23
2019-05-06T12:04:27.934Z,101846.42
2019-05-06T12:07:09.202Z,101843.08
2019-05-06T12:09:28.766Z,101847.56
2019-05-06T12:11:58.657Z,101840.80
2019-05-06T12:14:28.261Z,101846.95
2019-05-06T12:16:57.706Z,101847.72
2019-05-06T12:19:27.329Z,101841.44
2019-05-06T12:21:56.679Z,101831.95
2019-05-06T12:24:26.144Z,101824.12
2019-05-06T12:26:55.610Z,101833.30
2019-05-06T12:29:25.144Z,101835.55
2019-05-06T12:32:13.609Z,101835.41
2019-05-06T12:34:43.176Z,101820.03
2019-05-06T12:37:14.422Z,101832.22
2019-05-06T12:39:49.301Z,101833.97
2019-05-06T12:42:33.183Z,101827.33
2019-05-06T12:45:23.154Z,101823.23
2019-05-06T12:47:56.675Z,101820.17
2019-05-06T12:50:26.054Z,101826.34
2019-05-06T12:52:57.673Z,101817.14
2019-05-06T12:55:26.744Z,101819.31
2019-05-06T12:57:56.171Z,101823.09
2019-05-06T13:00:27.338Z,101817.44
2019-05-06T13:02:56.731Z,101817.76
2019-05-06T13:05:26.179Z,101818.45
2019-05-06T13:07:55.541Z,101809.15
2019-05-06T13:10:24.914Z,101816.70
2019-05-06T13:13:12.874Z,101814.98
2019-05-06T13:15:43.477Z,101814.98
2019-05-06T13:18:13.116Z,101805.68
2019-05-06T13:20:50.042Z,101813.08
2019-05-06T13:23:24.606Z,101799.22
2019-05-06T13:25:49.464Z,101797.09
2019-05-06T13:28:22.397Z,101801.72
2019-05-06T13:30:53.151Z,101801.33
2019-05-06T13:33:43.937Z,101799.97
2019-05-06T13:36:13.339Z,101794.08
2019-05-06T13:38:43.368Z,101796.27
2019-05-06T13:41:12.972Z,101790.23
2019-05-06T13:44:07.562Z,101792.36
2019-05-06T13:46:40.925Z,101787.33
2019-05-06T13:49:38.557Z,101788.23
2019-05-06T13:52:12.990Z,101784.69
2019-05-06T13:54:42.562Z,101783.70
2019-05-06T13:57:12.741Z,101782.73
2019-05-06T13:59:44.089Z,101782.50
2019-05-06T14:02:34.037Z,101782.41
2019-05-06T14:05:04.856Z,101788.22
2019-05-06T14:07:34.947Z,101797.99
2019-05-06T14:10:04.807Z,101784.03
2019-05-06T14:12:36.765Z,101780.06
2019-05-06T14:15:07.819Z,101778.28
2019-05-06T14:17:37.390Z,101767.78
2019-05-06T14:20:07.322Z,101771.48
2019-05-06T14:22:36.749Z,101782.01
2019-05-06T14:25:35.883Z,101774.81
2019-05-06T14:28:12.384Z,101768.77
2019-05-06T14:30:54.811Z,101769.83
2019-05-06T14:33:24.176Z,101776.33
2019-05-06T14:35:53.543Z,101756.23
2019-05-06T14:38:24.649Z,101767.23
2019-05-06T14:41:27.301Z,101753.80
2019-05-06T14:43:56.421Z,101758.70
2019-05-06T14:46:27.508Z,101762.09
2019-05-06T14:48:56.894Z,101763.33
2019-05-06T14:51:26.271Z,101762.98
2019-05-06T14:53:55.876Z,101751.66
2019-05-06T14:56:48.209Z,101758.92
2019-05-06T14:59:17.929Z,101752.22
2019-05-06T15:01:47.538Z,101751.09
2019-05-06T15:04:17.058Z,101749.89
2019-05-06T15:06:46.505Z,101746.13
2019-05-06T15:09:15.979Z,101735.05
2019-05-06T15:11:45.449Z,101739.52
2019-05-06T15:14:14.916Z,101732.66
2019-05-06T15:16:47.140Z,101727.52
2019-05-06T15:19:16.548Z,101733.27
2019-05-06T15:21:46.376Z,101726.41
2019-05-06T15:24:15.776Z,101729.14
2019-05-06T15:26:45.177Z,101723.72
2019-05-06T15:29:14.550Z,101725.44
2019-05-06T15:32:02.542Z,101726.70
2019-05-06T15:34:39.433Z,101726.65
2019-05-06T15:37:24.594Z,101721.52
2019-05-06T15:39:55.144Z,101722.16
2019-05-06T15:42:24.561Z,101729.60
2019-05-06T15:44:54.837Z,101718.13
2019-05-06T15:47:24.289Z,101715.91
2019-05-06T15:49:54.083Z,101707.00
2019-05-06T15:52:23.755Z,101715.78
2019-05-06T15:54:53.543Z,101710.73
2019-05-06T15:57:23.138Z,101706.11
2019-05-06T15:59:53.161Z,101707.48
2019-05-06T16:02:23.441Z,101699.13
2019-05-06T16:04:53.338Z,101702.53
2019-05-06T16:07:25.135Z,101696.56
2019-05-06T16:09:55.476Z,101692.21
2019-05-06T16:12:25.076Z,101688.51
2019-05-06T16:14:54.553Z,101680.33
2019-05-06T16:17:24.139Z,101679.38
2019-05-06T16:19:53.618Z,101674.30
2019-05-06T16:22:23.174Z,101666.19
2019-05-06T16:24:57.116Z,101671.16
2019-05-06T16:27:26.577Z,101661.64
2019-05-06T16:29:58.945Z,101668.95
2019-05-06T16:32:29.542Z,101657.20
2019-05-06T16:34:59.024Z,101667.69
2019-05-06T16:37:28.505Z,101665.83
2019-05-06T16:39:57.971Z,101663.18
2019-05-06T16:42:27.456Z,101652.12
2019-05-06T16:44:57.356Z,101656.41
2019-05-06T16:47:39.781Z,101646.27
2019-05-06T16:50:13.169Z,101648.89
2019-05-06T16:52:45.647Z,101640.44
2019-05-06T16:56:13.154Z,101645.56
2019-05-06T16:58:52.539Z,101654.52
2019-05-06T17:01:22.209Z,101651.33
2019-05-06T17:04:19.780Z,101655.83
2019-05-06T17:06:52.545Z,101646.42
2019-05-06T17:09:27.183Z,101647.48
2019-05-06T17:11:54.464Z,101647.00
2019-05-06T17:14:26.046Z,101647.11
2019-05-06T17:16:56.253Z,101646.76
2019-05-06T17:19:25.936Z,101649.64
2019-05-06T17:21:55.421Z,101644.97
2019-05-06T17:24:25.009Z,101637.92
2019-05-06T17:27:03.355Z,101636.25
2019-05-06T17:29:46.488Z,101627.73
2019-05-06T17:32:36.890Z,101623.66
2019-05-06T17:35:08.160Z,101621.81
2019-05-06T17:38:02.968Z,101630.80
2019-05-06T17:40:35.396Z,101618.09
2019-05-06T17:43:05.068Z,101617.19
2019-05-06T17:45:57.953Z,101608.48
2019-05-06T17:48:42.241Z,101607.75
2019-05-06T17:51:13.537Z,101606.07
2019-05-06T17:53:46.467Z,101602.98
2019-05-06T17:56:15.897Z,101608.13
2019-05-06T17:58:45.358Z,101601.23
2019-05-06T18:01:16.760Z,101599.96
2019-05-06T18:03:46.186Z,101599.11
2019-05-06T18:06:15.660Z,101592.82
2019-05-06T18:08:46.107Z,101600.20
2019-05-06T18:11:17.286Z,101603.13
2019-05-06T18:13:46.642Z,101605.61
2019-05-06T18:16:16.255Z,101600.87
2019-05-06T18:18:45.813Z,101603.66
2019-05-06T18:21:15.249Z,101598.86
2019-05-06T18:23:44.671Z,101599.73
2019-05-06T18:26:14.261Z,101606.08
2019-05-06T18:28:44.496Z,101593.58
2019-05-06T18:31:14.008Z,101592.78
2019-05-06T18:33:43.517Z,101601.65
2019-05-06T18:36:13.128Z,101594.91
2019-05-06T18:38:42.529Z,101595.91
2019-05-06T18:41:12.179Z,101586.18
2019-05-06T18:43:42.246Z,101587.08
2019-05-06T18:46:12.372Z,101587.86
2019-05-06T18:48:42.701Z,101590.70
2019-05-06T18:51:12.649Z,101589.52
2019-05-06T18:53:42.300Z,101585.25
2019-05-06T18:56:12.686Z,101587.19
2019-05-06T18:58:43.054Z,101590.32
2019-05-06T19:01:13.358Z,101582.94
2019-05-06T19:03:52.593Z,101590.45
2019-05-06T19:06:23.194Z,101584.73
2019-05-06T19:09:02.558Z,101589.69
2019-05-06T19:11:32.756Z,101588.34
2019-05-06T19:14:02.444Z,101588.27
2019-05-06T19:16:48.259Z,101593.40
2019-05-06T19:19:05.873Z,101596.45
2019-05-06T19:21:34.469Z,101594.49
2019-05-06T19:24:03.946Z,101596.26
2019-05-06T19:26:33.500Z,101589.42
2019-05-06T19:29:04.634Z,101585.28
2019-05-06T19:31:35.917Z,101583.47
2019-05-06T19:34:05.420Z,101587.15
2019-05-06T19:36:35.020Z,101586.90
2019-05-06T19:39:05.523Z,101579.82
2019-05-06T19:41:34.944Z,101578.97
2019-05-06T19:44:04.524Z,101580.20
2019-05-06T19:46:33.888Z,101578.74
2019-05-06T19:49:03.355Z,101582.56
2019-05-06T19:51:33.076Z,101584.64
2019-05-06T19:54:02.943Z,101582.20
2019-05-06T19:56:32.366Z,101584.17
2019-05-06T19:59:02.163Z,101579.88
2019-05-06T20:04:02.539Z,101585.14
2019-05-06T20:06:55.212Z,101581.74
2019-05-06T20:09:46.430Z,101594.20
2019-05-06T20:12:39.008Z,101588.59
2019-05-06T20:15:26.659Z,101593.72
2019-05-06T20:17:56.010Z,101597.39
2019-05-06T20:20:25.447Z,101593.62
2019-05-06T20:22:54.826Z,101592.04
2019-05-06T20:25:24.212Z,101576.98
2019-05-06T20:27:53.618Z,101582.75
2019-05-06T20:30:23.004Z,101575.89
2019-05-06T20:32:52.453Z,101575.54
2019-05-06T20:35:22.490Z,101575.41
2019-05-06T20:37:53.444Z,101573.84
2019-05-06T20:40:23.272Z,101576.98
2019-05-06T20:42:53.127Z,101567.12
2019-05-06T20:45:22.588Z,101571.75
2019-05-06T20:47:52.620Z,101559.79
2019-05-06T20:50:22.684Z,101559.05
2019-05-06T20:52:52.241Z,101555.64
2019-05-06T20:55:22.903Z,101555.78
2019-05-06T20:57:52.994Z,101554.81
2019-05-06T21:00:23.044Z,101554.69
2019-05-06T21:02:53.443Z,101552.99
2019-05-06T21:05:23.115Z,101553.44
2019-05-06T21:07:52.759Z,101546.02
2019-05-06T21:10:22.233Z,101545.05
2019-05-06T21:12:53.257Z,101552.00
2019-05-06T21:15:23.076Z,101557.14
2019-05-06T21:17:52.696Z,101543.73
2019-05-06T21:20:22.081Z,101544.45
2019-05-06T21:22:52.779Z,101543.24
2019-05-06T21:25:22.667Z,101542.98
2019-05-06T21:27:53.212Z,101545.17
2019-05-06T21:30:23.066Z,101544.33
2019-05-06T21:32:52.480Z,101544.46
2019-05-06T21:35:22.292Z,101544.95
2019-05-06T21:37:52.923Z,101541.65
2019-05-06T21:40:22.440Z,101537.27
2019-05-06T21:42:51.813Z,101535.17
2019-05-06T21:45:22.172Z,101533.11
2019-05-06T21:47:52.997Z,101531.52
2019-05-06T21:50:22.936Z,101531.52
2019-05-06T21:52:52.347Z,101532.87
2019-05-06T21:55:22.944Z,101524.20
2019-05-06T21:57:53.071Z,101523.61
2019-05-06T22:00:33.456Z,101524.69
2019-05-06T22:03:02.938Z,101527.61
2019-05-06T22:05:32.410Z,101512.36
2019-05-06T22:08:02.148Z,101518.58
2019-05-06T22:10:32.505Z,101512.36
2019-05-06T22:13:02.133Z,101509.05
2019-05-06T22:15:32.414Z,101508.83
2019-05-06T22:18:02.603Z,101504.53
2019-05-06T22:20:34.726Z,101509.05
2019-05-06T22:23:04.094Z,101517.72
2019-05-06T22:25:33.475Z,101512.22
2019-05-06T22:28:02.877Z,101510.88
2019-05-06T22:30:32.843Z,101508.32
2019-05-06T22:33:03.653Z,101503.55
2019-05-06T22:35:33.079Z,101506.84
2019-05-06T22:38:02.929Z,101510.47
2019-05-06T22:40:32.835Z,101500.33
2019-05-06T22:43:03.162Z,101506.41
2019-05-06T22:45:33.099Z,101511.64
2019-05-06T22:48:04.547Z,101508.85
2019-05-06T22:50:33.672Z,101508.59
2019-05-06T22:53:03.046Z,101513.31
2019-05-06T22:55:32.917Z,101510.04
2019-05-06T22:58:02.618Z,101510.14
2019-05-06T23:00:33.657Z,101508.08
2019-05-06T23:03:07.000Z,101500.88
2019-05-06T23:05:36.425Z,101500.88
2019-05-06T23:08:05.901Z,101502.00
2019-05-06T23:10:35.293Z,101500.52
2019-05-06T23:13:04.694Z,101492.12
2019-05-06T23:15:34.308Z,101495.02
2019-05-06T23:18:03.747Z,101502.34
2019-05-06T23:20:33.147Z,101502.56
2019-05-06T23:23:04.735Z,101496.47
2019-05-06T23:25:33.696Z,101492.91
2019-05-06T23:28:03.115Z,101495.35
2019-05-06T23:30:33.388Z,101500.22
2019-05-06T23:33:03.142Z,101495.35
2019-05-06T23:35:32.473Z,101489.85
2019-05-06T23:38:37.535Z,101493.51
2019-05-06T23:41:42.639Z,101489.00
2019-05-06T23:44:47.389Z,101488.67
2019-05-06T23:47:53.147Z,101486.90
2019-05-06T23:50:58.048Z,101481.91
2019-05-06T23:54:03.187Z,101486.85
2019-05-06T23:56:44.153Z,101479.16
2019-05-06T23:59:15.507Z,101476.58
